sensor_id;sensor_type;location;lat;lon;timestamp;P1;durP1;ratioP1;P2;durP2;ratioP2
817;SDS011;391;51.052;6.954;2022-07-09T00:01:05;3.63;;;3.33;;
817;SDS011;391;51.052;6.954;2022-07-09T00:03:08;3.47;;;3.17;;
817;SDS011;391;51.052;6.954;2022-07-09T00:05:12;3.73;;;3.23;;
817;SDS011;391;51.052;6.954;2022-07-09T00:07:18;4.87;;;4.37;;
817;SDS011;391;51.052;6.954;2022-07-09T00:09:23;4.00;;;3.43;;
817;SDS011;391;51.052;6.954;2022-07-09T00:11:26;3.27;;;2.97;;
817;SDS011;391;51.052;6.954;2022-07-09T00:13:30;5.87;;;3.63;;
817;SDS011;391;51.052;6.954;2022-07-09T00:15:33;4.27;;;3.87;;
817;SDS011;391;51.052;6.954;2022-07-09T00:17:37;4.93;;;4.40;;
817;SDS011;391;51.052;6.954;2022-07-09T00:19:40;4.80;;;4.40;;
817;SDS011;391;51.052;6.954;2022-07-09T00:21:44;5.33;;;3.80;;
817;SDS011;391;51.052;6.954;2022-07-09T00:23:47;4.30;;;3.90;;
817;SDS011;391;51.052;6.954;2022-07-09T00:25:52;4.80;;;4.43;;
817;SDS011;391;51.052;6.954;2022-07-09T00:27:56;3.83;;;3.53;;
817;SDS011;391;51.052;6.954;2022-07-09T00:29:59;4.97;;;4.37;;
817;SDS011;391;51.052;6.954;2022-07-09T00:32:03;4.20;;;3.83;;
817;SDS011;391;51.052;6.954;2022-07-09T00:34:07;4.20;;;3.80;;
817;SDS011;391;51.052;6.954;2022-07-09T00:36:10;4.10;;;3.80;;
817;SDS011;391;51.052;6.954;2022-07-09T00:38:14;4.90;;;3.73;;
817;SDS011;391;51.052;6.954;2022-07-09T00:40:17;4.10;;;3.70;;
817;SDS011;391;51.052;6.954;2022-07-09T00:42:22;4.40;;;4.07;;
817;SDS011;391;51.052;6.954;2022-07-09T00:44:26;3.90;;;3.60;;
817;SDS011;391;51.052;6.954;2022-07-09T00:46:30;3.90;;;3.60;;
817;SDS011;391;51.052;6.954;2022-07-09T00:48:33;3.53;;;3.23;;
817;SDS011;391;51.052;6.954;2022-07-09T00:50:37;3.97;;;3.67;;
817;SDS011;391;51.052;6.954;2022-07-09T00:52:42;3.93;;;3.53;;
817;SDS011;391;51.052;6.954;2022-07-09T00:54:47;3.90;;;3.50;;
817;SDS011;391;51.052;6.954;2022-07-09T00:56:51;3.80;;;3.40;;
817;SDS011;391;51.052;6.954;2022-07-09T00:58:57;3.30;;;2.97;;
817;SDS011;391;51.052;6.954;2022-07-09T01:01:01;4.83;;;3.13;;
817;SDS011;391;51.052;6.954;2022-07-09T01:03:05;4.03;;;3.67;;
817;SDS011;391;51.052;6.954;2022-07-09T01:05:09;4.07;;;3.67;;
817;SDS011;391;51.052;6.954;2022-07-09T01:07:12;3.67;;;3.37;;
817;SDS011;391;51.052;6.954;2022-07-09T01:09:16;3.90;;;3.60;;
817;SDS011;391;51.052;6.954;2022-07-09T01:11:19;4.53;;;3.87;;
817;SDS011;391;51.052;6.954;2022-07-09T01:13:23;4.00;;;3.60;;
817;SDS011;391;51.052;6.954;2022-07-09T01:15:29;4.23;;;3.60;;
817;SDS011;391;51.052;6.954;2022-07-09T01:17:36;3.43;;;3.03;;
817;SDS011;391;51.052;6.954;2022-07-09T01:19:40;4.77;;;4.03;;
817;SDS011;391;51.052;6.954;2022-07-09T01:21:46;4.03;;;3.13;;
817;SDS011;391;51.052;6.954;2022-07-09T01:23:49;3.77;;;3.50;;
817;SDS011;391;51.052;6.954;2022-07-09T01:25:54;3.83;;;3.53;;
817;SDS011;391;51.052;6.954;2022-07-09T01:27:58;3.77;;;3.47;;
817;SDS011;391;51.052;6.954;2022-07-09T01:30:02;3.70;;;3.40;;
817;SDS011;391;51.052;6.954;2022-07-09T01:32:07;3.70;;;3.40;;
817;SDS011;391;51.052;6.954;2022-07-09T01:34:10;3.40;;;3.10;;
817;SDS011;391;51.052;6.954;2022-07-09T01:36:14;4.40;;;4.00;;
817;SDS011;391;51.052;6.954;2022-07-09T01:38:20;5.83;;;4.70;;
817;SDS011;391;51.052;6.954;2022-07-09T01:40:23;3.90;;;3.60;;
817;SDS011;391;51.052;6.954;2022-07-09T01:42:27;5.00;;;4.27;;
817;SDS011;391;51.052;6.954;2022-07-09T01:44:30;4.20;;;3.80;;
817;SDS011;391;51.052;6.954;2022-07-09T01:46:34;7.20;;;4.03;;
817;SDS011;391;51.052;6.954;2022-07-09T01:48:38;5.83;;;3.63;;
817;SDS011;391;51.052;6.954;2022-07-09T01:50:44;4.40;;;4.00;;
817;SDS011;391;51.052;6.954;2022-07-09T01:52:47;6.27;;;4.10;;
817;SDS011;391;51.052;6.954;2022-07-09T01:54:53;4.50;;;3.93;;
817;SDS011;391;51.052;6.954;2022-07-09T01:56:57;3.60;;;3.30;;
817;SDS011;391;51.052;6.954;2022-07-09T01:59:00;3.80;;;3.50;;
817;SDS011;391;51.052;6.954;2022-07-09T02:01:04;4.00;;;3.50;;
817;SDS011;391;51.052;6.954;2022-07-09T02:03:08;4.17;;;3.87;;
817;SDS011;391;51.052;6.954;2022-07-09T02:05:11;6.13;;;3.77;;
817;SDS011;391;51.052;6.954;2022-07-09T02:07:15;4.30;;;3.90;;
817;SDS011;391;51.052;6.954;2022-07-09T02:09:19;4.00;;;3.70;;
817;SDS011;391;51.052;6.954;2022-07-09T02:11:23;3.40;;;3.10;;
817;SDS011;391;51.052;6.954;2022-07-09T02:13:27;3.80;;;3.50;;
817;SDS011;391;51.052;6.954;2022-07-09T02:15:32;3.67;;;3.13;;
817;SDS011;391;51.052;6.954;2022-07-09T02:17:36;3.43;;;3.23;;
817;SDS011;391;51.052;6.954;2022-07-09T02:19:40;4.17;;;3.37;;
817;SDS011;391;51.052;6.954;2022-07-09T02:21:43;4.63;;;3.77;;
817;SDS011;391;51.052;6.954;2022-07-09T02:23:47;3.80;;;3.50;;
817;SDS011;391;51.052;6.954;2022-07-09T02:25:50;4.63;;;3.67;;
817;SDS011;391;51.052;6.954;2022-07-09T02:27:55;4.23;;;3.93;;
817;SDS011;391;51.052;6.954;2022-07-09T02:29:59;4.40;;;4.10;;
817;SDS011;391;51.052;6.954;2022-07-09T02:32:02;4.17;;;3.87;;
817;SDS011;391;51.052;6.954;2022-07-09T02:34:06;3.80;;;3.40;;
817;SDS011;391;51.052;6.954;2022-07-09T02:36:09;4.17;;;3.73;;
817;SDS011;391;51.052;6.954;2022-07-09T02:38:13;4.23;;;3.27;;
817;SDS011;391;51.052;6.954;2022-07-09T02:40:17;3.80;;;3.33;;
817;SDS011;391;51.052;6.954;2022-07-09T02:42:20;5.80;;;3.50;;
817;SDS011;391;51.052;6.954;2022-07-09T02:44:25;3.60;;;3.30;;
817;SDS011;391;51.052;6.954;2022-07-09T02:46:28;3.70;;;3.40;;
817;SDS011;391;51.052;6.954;2022-07-09T02:48:32;3.70;;;3.40;;
817;SDS011;391;51.052;6.954;2022-07-09T02:50:36;4.43;;;3.87;;
817;SDS011;391;51.052;6.954;2022-07-09T02:52:40;3.47;;;3.10;;
817;SDS011;391;51.052;6.954;2022-07-09T02:54:43;4.37;;;4.00;;
817;SDS011;391;51.052;6.954;2022-07-09T02:56:46;3.73;;;3.43;;
817;SDS011;391;51.052;6.954;2022-07-09T02:58:50;3.63;;;3.20;;
817;SDS011;391;51.052;6.954;2022-07-09T03:00:55;4.60;;;3.27;;
817;SDS011;391;51.052;6.954;2022-07-09T03:02:58;3.80;;;3.50;;
817;SDS011;391;51.052;6.954;2022-07-09T03:05:02;4.50;;;4.10;;
817;SDS011;391;51.052;6.954;2022-07-09T03:07:05;4.93;;;3.70;;
817;SDS011;391;51.052;6.954;2022-07-09T03:09:09;4.50;;;4.20;;
817;SDS011;391;51.052;6.954;2022-07-09T03:11:12;4.57;;;3.20;;
817;SDS011;391;51.052;6.954;2022-07-09T03:13:16;4.10;;;3.47;;
817;SDS011;391;51.052;6.954;2022-07-09T03:15:19;3.80;;;3.47;;
817;SDS011;391;51.052;6.954;2022-07-09T03:17:24;4.27;;;3.50;;
817;SDS011;391;51.052;6.954;2022-07-09T03:19:28;5.27;;;4.33;;
817;SDS011;391;51.052;6.954;2022-07-09T03:21:32;4.00;;;3.70;;
817;SDS011;391;51.052;6.954;2022-07-09T03:23:35;3.40;;;3.10;;
817;SDS011;391;51.052;6.954;2022-07-09T03:25:39;4.70;;;4.30;;
817;SDS011;391;51.052;6.954;2022-07-09T03:27:42;4.17;;;3.87;;
817;SDS011;391;51.052;6.954;2022-07-09T03:29:46;3.83;;;3.30;;
817;SDS011;391;51.052;6.954;2022-07-09T03:31:49;4.03;;;3.10;;
817;SDS011;391;51.052;6.954;2022-07-09T03:33:54;3.70;;;3.40;;
817;SDS011;391;51.052;6.954;2022-07-09T03:35:58;3.87;;;3.57;;
817;SDS011;391;51.052;6.954;2022-07-09T03:38:01;4.37;;;2.93;;
817;SDS011;391;51.052;6.954;2022-07-09T03:40:05;4.37;;;3.97;;
817;SDS011;391;51.052;6.954;2022-07-09T03:42:09;4.03;;;3.70;;
817;SDS011;391;51.052;6.954;2022-07-09T03:44:13;5.70;;;3.73;;
817;SDS011;391;51.052;6.954;2022-07-09T03:46:16;4.57;;;3.47;;
817;SDS011;391;51.052;6.954;2022-07-09T03:48:20;3.57;;;3.30;;
817;SDS011;391;51.052;6.954;2022-07-09T03:50:25;4.90;;;4.30;;
817;SDS011;391;51.052;6.954;2022-07-09T03:52:29;4.03;;;3.73;;
817;SDS011;391;51.052;6.954;2022-07-09T03:54:32;4.37;;;3.97;;
817;SDS011;391;51.052;6.954;2022-07-09T03:56:36;4.23;;;3.93;;
817;SDS011;391;51.052;6.954;2022-07-09T03:58:39;3.50;;;3.20;;
817;SDS011;391;51.052;6.954;2022-07-09T04:00:45;3.73;;;3.20;;
817;SDS011;391;51.052;6.954;2022-07-09T04:02:48;3.60;;;3.30;;
817;SDS011;391;51.052;6.954;2022-07-09T04:04:52;5.40;;;4.00;;
817;SDS011;391;51.052;6.954;2022-07-09T04:06:59;4.33;;;3.90;;
817;SDS011;391;51.052;6.954;2022-07-09T04:09:03;4.03;;;3.73;;
817;SDS011;391;51.052;6.954;2022-07-09T04:11:07;4.90;;;3.50;;
817;SDS011;391;51.052;6.954;2022-07-09T04:13:10;3.40;;;3.20;;
817;SDS011;391;51.052;6.954;2022-07-09T04:15:18;4.47;;;4.07;;
817;SDS011;391;51.052;6.954;2022-07-09T04:17:24;3.60;;;3.30;;
817;SDS011;391;51.052;6.954;2022-07-09T04:19:33;4.17;;;3.87;;
817;SDS011;391;51.052;6.954;2022-07-09T04:21:37;4.20;;;3.90;;
817;SDS011;391;51.052;6.954;2022-07-09T04:23:41;4.23;;;3.93;;
817;SDS011;391;51.052;6.954;2022-07-09T04:25:45;4.43;;;3.90;;
817;SDS011;391;51.052;6.954;2022-07-09T04:27:50;5.20;;;3.30;;
817;SDS011;391;51.052;6.954;2022-07-09T04:29:53;3.37;;;3.17;;
817;SDS011;391;51.052;6.954;2022-07-09T04:31:56;3.50;;;3.30;;
817;SDS011;391;51.052;6.954;2022-07-09T04:34:00;3.83;;;3.50;;
817;SDS011;391;51.052;6.954;2022-07-09T04:36:04;4.13;;;3.43;;
817;SDS011;391;51.052;6.954;2022-07-09T04:38:07;4.30;;;3.90;;
817;SDS011;391;51.052;6.954;2022-07-09T04:40:13;3.47;;;3.17;;
817;SDS011;391;51.052;6.954;2022-07-09T04:42:16;3.43;;;3.13;;
817;SDS011;391;51.052;6.954;2022-07-09T04:44:21;3.87;;;3.57;;
817;SDS011;391;51.052;6.954;2022-07-09T04:46:24;4.10;;;3.70;;
817;SDS011;391;51.052;6.954;2022-07-09T04:48:29;4.43;;;4.13;;
817;SDS011;391;51.052;6.954;2022-07-09T04:50:33;5.40;;;4.90;;
817;SDS011;391;51.052;6.954;2022-07-09T04:52:36;5.40;;;4.90;;
817;SDS011;391;51.052;6.954;2022-07-09T04:54:41;6.13;;;5.53;;
817;SDS011;391;51.052;6.954;2022-07-09T04:56:46;7.33;;;6.60;;
817;SDS011;391;51.052;6.954;2022-07-09T04:58:49;7.10;;;6.40;;
817;SDS011;391;51.052;6.954;2022-07-09T05:00:55;9.20;;;8.07;;
817;SDS011;391;51.052;6.954;2022-07-09T05:02:59;9.20;;;6.80;;
817;SDS011;391;51.052;6.954;2022-07-09T05:05:02;7.30;;;6.70;;
817;SDS011;391;51.052;6.954;2022-07-09T05:07:08;10.10;;;9.10;;
817;SDS011;391;51.052;6.954;2022-07-09T05:09:11;8.70;;;7.80;;
817;SDS011;391;51.052;6.954;2022-07-09T05:11:14;8.93;;;8.10;;
817;SDS011;391;51.052;6.954;2022-07-09T05:13:21;12.30;;;11.23;;
817;SDS011;391;51.052;6.954;2022-07-09T05:15:24;11.90;;;10.73;;
817;SDS011;391;51.052;6.954;2022-07-09T05:17:27;11.90;;;10.50;;
817;SDS011;391;51.052;6.954;2022-07-09T05:19:35;10.93;;;9.57;;
817;SDS011;391;51.052;6.954;2022-07-09T05:21:39;9.93;;;9.13;;
817;SDS011;391;51.052;6.954;2022-07-09T05:23:43;10.10;;;9.10;;
817;SDS011;391;51.052;6.954;2022-07-09T05:25:46;10.70;;;9.70;;
817;SDS011;391;51.052;6.954;2022-07-09T05:27:50;9.83;;;8.83;;
817;SDS011;391;51.052;6.954;2022-07-09T05:29:54;13.23;;;10.27;;
817;SDS011;391;51.052;6.954;2022-07-09T05:31:58;9.63;;;7.40;;
817;SDS011;391;51.052;6.954;2022-07-09T05:34:02;7.67;;;7.07;;
817;SDS011;391;51.052;6.954;2022-07-09T05:36:06;7.80;;;6.97;;
817;SDS011;391;51.052;6.954;2022-07-09T05:38:10;7.23;;;6.53;;
817;SDS011;391;51.052;6.954;2022-07-09T05:40:13;14.17;;;7.80;;
817;SDS011;391;51.052;6.954;2022-07-09T05:42:17;9.30;;;8.23;;
817;SDS011;391;51.052;6.954;2022-07-09T05:44:20;9.03;;;8.13;;
817;SDS011;391;51.052;6.954;2022-07-09T05:46:27;10.87;;;8.67;;
817;SDS011;391;51.052;6.954;2022-07-09T05:48:31;13.03;;;11.80;;
817;SDS011;391;51.052;6.954;2022-07-09T05:50:35;14.93;;;13.47;;
817;SDS011;391;51.052;6.954;2022-07-09T05:52:38;11.87;;;10.87;;
817;SDS011;391;51.052;6.954;2022-07-09T05:54:42;12.10;;;9.73;;
817;SDS011;391;51.052;6.954;2022-07-09T05:56:46;10.83;;;9.80;;
817;SDS011;391;51.052;6.954;2022-07-09T05:58:49;11.40;;;10.30;;
817;SDS011;391;51.052;6.954;2022-07-09T06:00:53;10.03;;;9.03;;
817;SDS011;391;51.052;6.954;2022-07-09T06:02:58;12.07;;;11.13;;
817;SDS011;391;51.052;6.954;2022-07-09T06:05:01;9.50;;;8.63;;
817;SDS011;391;51.052;6.954;2022-07-09T06:07:05;12.93;;;11.73;;
817;SDS011;391;51.052;6.954;2022-07-09T06:09:08;11.97;;;9.03;;
817;SDS011;391;51.052;6.954;2022-07-09T06:11:12;12.20;;;11.00;;
817;SDS011;391;51.052;6.954;2022-07-09T06:13:15;11.13;;;10.03;;
817;SDS011;391;51.052;6.954;2022-07-09T06:15:19;13.07;;;10.60;;
817;SDS011;391;51.052;6.954;2022-07-09T06:17:23;12.30;;;11.10;;
817;SDS011;391;51.052;6.954;2022-07-09T06:19:28;15.93;;;13.27;;
817;SDS011;391;51.052;6.954;2022-07-09T06:21:31;16.23;;;13.30;;
817;SDS011;391;51.052;6.954;2022-07-09T06:23:35;13.23;;;11.93;;
817;SDS011;391;51.052;6.954;2022-07-09T06:25:38;14.57;;;12.60;;
817;SDS011;391;51.052;6.954;2022-07-09T06:27:42;12.80;;;11.33;;
817;SDS011;391;51.052;6.954;2022-07-09T06:29:45;12.20;;;11.07;;
817;SDS011;391;51.052;6.954;2022-07-09T06:31:48;11.73;;;9.40;;
817;SDS011;391;51.052;6.954;2022-07-09T06:33:52;8.37;;;7.67;;
817;SDS011;391;51.052;6.954;2022-07-09T06:36:03;10.17;;;9.27;;
817;SDS011;391;51.052;6.954;2022-07-09T06:38:07;12.20;;;7.67;;
817;SDS011;391;51.052;6.954;2022-07-09T06:40:10;9.90;;;8.90;;
817;SDS011;391;51.052;6.954;2022-07-09T06:42:15;7.90;;;7.20;;
817;SDS011;391;51.052;6.954;2022-07-09T06:44:24;8.00;;;5.70;;
817;SDS011;391;51.052;6.954;2022-07-09T06:46:28;11.77;;;9.67;;
817;SDS011;391;51.052;6.954;2022-07-09T06:48:31;6.73;;;6.13;;
817;SDS011;391;51.052;6.954;2022-07-09T06:50:35;6.83;;;6.17;;
817;SDS011;391;51.052;6.954;2022-07-09T06:52:40;7.10;;;6.00;;
817;SDS011;391;51.052;6.954;2022-07-09T06:54:43;6.83;;;6.13;;
817;SDS011;391;51.052;6.954;2022-07-09T06:56:47;6.03;;;5.30;;
817;SDS011;391;51.052;6.954;2022-07-09T06:58:50;8.77;;;7.97;;
817;SDS011;391;51.052;6.954;2022-07-09T07:00:54;10.93;;;6.90;;
817;SDS011;391;51.052;6.954;2022-07-09T07:02:57;7.17;;;6.57;;
817;SDS011;391;51.052;6.954;2022-07-09T07:05:01;6.83;;;6.13;;
817;SDS011;391;51.052;6.954;2022-07-09T07:07:05;6.57;;;5.23;;
817;SDS011;391;51.052;6.954;2022-07-09T07:09:10;5.60;;;5.17;;
817;SDS011;391;51.052;6.954;2022-07-09T07:11:14;6.53;;;5.87;;
817;SDS011;391;51.052;6.954;2022-07-09T07:13:17;6.90;;;6.20;;
817;SDS011;391;51.052;6.954;2022-07-09T07:15:21;6.30;;;5.43;;
817;SDS011;391;51.052;6.954;2022-07-09T07:17:24;7.80;;;6.00;;
817;SDS011;391;51.052;6.954;2022-07-09T07:19:27;7.70;;;6.97;;
817;SDS011;391;51.052;6.954;2022-07-09T07:21:31;4.40;;;4.00;;
817;SDS011;391;51.052;6.954;2022-07-09T07:23:35;6.30;;;5.80;;
817;SDS011;391;51.052;6.954;2022-07-09T07:25:40;7.20;;;5.40;;
817;SDS011;391;51.052;6.954;2022-07-09T07:27:43;8.30;;;5.47;;
817;SDS011;391;51.052;6.954;2022-07-09T07:29:47;8.00;;;6.20;;
817;SDS011;391;51.052;6.954;2022-07-09T07:31:50;7.37;;;6.10;;
817;SDS011;391;51.052;6.954;2022-07-09T07:33:54;7.03;;;6.33;;
817;SDS011;391;51.052;6.954;2022-07-09T07:35:57;13.20;;;5.20;;
817;SDS011;391;51.052;6.954;2022-07-09T07:38:01;6.33;;;5.53;;
817;SDS011;391;51.052;6.954;2022-07-09T07:40:05;5.80;;;5.33;;
817;SDS011;391;51.052;6.954;2022-07-09T07:42:13;8.60;;;6.20;;
817;SDS011;391;51.052;6.954;2022-07-09T07:44:18;5.80;;;4.80;;
817;SDS011;391;51.052;6.954;2022-07-09T07:46:21;4.60;;;3.40;;
817;SDS011;391;51.052;6.954;2022-07-09T07:48:25;5.80;;;5.20;;
817;SDS011;391;51.052;6.954;2022-07-09T07:50:29;7.10;;;5.53;;
817;SDS011;391;51.052;6.954;2022-07-09T07:52:34;6.60;;;5.50;;
817;SDS011;391;51.052;6.954;2022-07-09T07:54:38;6.33;;;5.83;;
817;SDS011;391;51.052;6.954;2022-07-09T07:56:41;4.50;;;4.20;;
817;SDS011;391;51.052;6.954;2022-07-09T07:58:46;6.77;;;4.40;;
817;SDS011;391;51.052;6.954;2022-07-09T08:00:50;8.60;;;6.50;;
817;SDS011;391;51.052;6.954;2022-07-09T08:02:53;7.83;;;7.13;;
817;SDS011;391;51.052;6.954;2022-07-09T08:04:57;6.50;;;4.60;;
817;SDS011;391;51.052;6.954;2022-07-09T08:07:00;5.93;;;5.40;;
817;SDS011;391;51.052;6.954;2022-07-09T08:09:04;9.13;;;4.00;;
817;SDS011;391;51.052;6.954;2022-07-09T08:11:07;4.07;;;3.67;;
817;SDS011;391;51.052;6.954;2022-07-09T08:13:11;4.43;;;4.03;;
817;SDS011;391;51.052;6.954;2022-07-09T08:15:15;7.80;;;4.73;;
817;SDS011;391;51.052;6.954;2022-07-09T08:17:19;4.27;;;3.87;;
817;SDS011;391;51.052;6.954;2022-07-09T08:19:22;4.13;;;3.13;;
817;SDS011;391;51.052;6.954;2022-07-09T08:21:33;2.90;;;2.60;;
817;SDS011;391;51.052;6.954;2022-07-09T08:23:37;3.53;;;2.63;;
817;SDS011;391;51.052;6.954;2022-07-09T08:25:55;3.20;;;2.90;;
817;SDS011;391;51.052;6.954;2022-07-09T08:27:59;4.70;;;2.70;;
817;SDS011;391;51.052;6.954;2022-07-09T08:30:02;5.20;;;3.77;;
817;SDS011;391;51.052;6.954;2022-07-09T08:32:08;3.30;;;2.73;;
817;SDS011;391;51.052;6.954;2022-07-09T08:34:12;4.00;;;3.60;;
817;SDS011;391;51.052;6.954;2022-07-09T08:36:15;3.30;;;3.00;;
817;SDS011;391;51.052;6.954;2022-07-09T08:38:20;4.33;;;3.93;;
817;SDS011;391;51.052;6.954;2022-07-09T08:40:23;7.03;;;5.03;;
817;SDS011;391;51.052;6.954;2022-07-09T08:42:28;5.80;;;5.30;;
817;SDS011;391;51.052;6.954;2022-07-09T08:44:32;6.50;;;3.30;;
817;SDS011;391;51.052;6.954;2022-07-09T08:46:37;5.27;;;3.00;;
817;SDS011;391;51.052;6.954;2022-07-09T08:48:44;4.23;;;3.40;;
817;SDS011;391;51.052;6.954;2022-07-09T08:50:48;3.70;;;3.30;;
817;SDS011;391;51.052;6.954;2022-07-09T08:52:53;3.40;;;3.00;;
817;SDS011;391;51.052;6.954;2022-07-09T08:54:57;3.13;;;2.83;;
817;SDS011;391;51.052;6.954;2022-07-09T08:57:01;6.40;;;3.10;;
817;SDS011;391;51.052;6.954;2022-07-09T08:59:04;3.30;;;2.20;;
817;SDS011;391;51.052;6.954;2022-07-09T09:01:09;3.17;;;2.60;;
817;SDS011;391;51.052;6.954;2022-07-09T09:03:16;5.77;;;2.63;;
817;SDS011;391;51.052;6.954;2022-07-09T09:05:21;3.33;;;2.10;;
817;SDS011;391;51.052;6.954;2022-07-09T09:07:25;5.17;;;2.40;;
817;SDS011;391;51.052;6.954;2022-07-09T09:09:34;3.27;;;2.57;;
817;SDS011;391;51.052;6.954;2022-07-09T09:11:38;3.73;;;2.17;;
817;SDS011;391;51.052;6.954;2022-07-09T09:13:42;3.20;;;2.27;;
817;SDS011;391;51.052;6.954;2022-07-09T09:15:47;2.60;;;1.80;;
817;SDS011;391;51.052;6.954;2022-07-09T09:17:50;2.90;;;2.20;;
817;SDS011;391;51.052;6.954;2022-07-09T09:19:54;4.10;;;2.13;;
817;SDS011;391;51.052;6.954;2022-07-09T09:21:59;2.10;;;1.90;;
817;SDS011;391;51.052;6.954;2022-07-09T09:24:02;1.93;;;1.40;;
817;SDS011;391;51.052;6.954;2022-07-09T09:26:12;2.80;;;1.57;;
817;SDS011;391;51.052;6.954;2022-07-09T09:28:17;1.70;;;1.60;;
817;SDS011;391;51.052;6.954;2022-07-09T09:30:21;3.40;;;1.83;;
817;SDS011;391;51.052;6.954;2022-07-09T09:32:25;1.40;;;1.27;;
817;SDS011;391;51.052;6.954;2022-07-09T09:34:28;1.70;;;1.60;;
817;SDS011;391;51.052;6.954;2022-07-09T09:36:32;3.20;;;2.70;;
817;SDS011;391;51.052;6.954;2022-07-09T09:38:45;1.70;;;1.60;;
817;SDS011;391;51.052;6.954;2022-07-09T09:40:48;2.50;;;1.37;;
817;SDS011;391;51.052;6.954;2022-07-09T09:42:51;4.17;;;1.70;;
817;SDS011;391;51.052;6.954;2022-07-09T09:44:59;3.20;;;2.70;;
817;SDS011;391;51.052;6.954;2022-07-09T09:47:03;2.43;;;1.47;;
817;SDS011;391;51.052;6.954;2022-07-09T09:49:09;2.07;;;1.53;;
817;SDS011;391;51.052;6.954;2022-07-09T09:51:14;4.50;;;1.43;;
817;SDS011;391;51.052;6.954;2022-07-09T09:53:21;2.90;;;1.20;;
817;SDS011;391;51.052;6.954;2022-07-09T09:55:27;1.40;;;1.30;;
817;SDS011;391;51.052;6.954;2022-07-09T09:57:31;1.90;;;1.30;;
817;SDS011;391;51.052;6.954;2022-07-09T09:59:35;1.60;;;1.20;;
817;SDS011;391;51.052;6.954;2022-07-09T10:01:40;1.40;;;1.20;;
817;SDS011;391;51.052;6.954;2022-07-09T10:03:44;5.57;;;1.60;;
817;SDS011;391;51.052;6.954;2022-07-09T10:05:49;1.93;;;1.47;;
817;SDS011;391;51.052;6.954;2022-07-09T10:07:53;1.60;;;1.50;;
817;SDS011;391;51.052;6.954;2022-07-09T10:09:57;1.10;;;0.90;;
817;SDS011;391;51.052;6.954;2022-07-09T10:12:03;1.40;;;1.13;;
817;SDS011;391;51.052;6.954;2022-07-09T10:14:07;2.43;;;1.77;;
817;SDS011;391;51.052;6.954;2022-07-09T10:16:17;1.70;;;1.17;;
817;SDS011;391;51.052;6.954;2022-07-09T10:18:21;1.30;;;1.20;;
817;SDS011;391;51.052;6.954;2022-07-09T10:20:31;1.73;;;1.13;;
817;SDS011;391;51.052;6.954;2022-07-09T10:22:36;1.87;;;1.17;;
817;SDS011;391;51.052;6.954;2022-07-09T10:24:43;1.27;;;1.17;;
817;SDS011;391;51.052;6.954;2022-07-09T10:26:48;1.77;;;1.67;;
817;SDS011;391;51.052;6.954;2022-07-09T10:28:52;1.43;;;1.33;;
817;SDS011;391;51.052;6.954;2022-07-09T10:31:05;2.13;;;1.43;;
817;SDS011;391;51.052;6.954;2022-07-09T10:33:10;1.20;;;0.90;;
817;SDS011;391;51.052;6.954;2022-07-09T10:35:16;1.50;;;1.40;;
817;SDS011;391;51.052;6.954;2022-07-09T10:37:33;1.20;;;1.00;;
817;SDS011;391;51.052;6.954;2022-07-09T10:39:38;1.30;;;1.20;;
817;SDS011;391;51.052;6.954;2022-07-09T10:41:42;1.50;;;1.17;;
817;SDS011;391;51.052;6.954;2022-07-09T10:43:49;1.73;;;1.23;;
817;SDS011;391;51.052;6.954;2022-07-09T10:45:54;4.43;;;1.97;;
817;SDS011;391;51.052;6.954;2022-07-09T10:48:02;1.93;;;1.33;;
817;SDS011;391;51.052;6.954;2022-07-09T10:50:07;2.70;;;1.40;;
817;SDS011;391;51.052;6.954;2022-07-09T10:52:12;2.53;;;1.50;;
817;SDS011;391;51.052;6.954;2022-07-09T10:54:16;1.57;;;1.47;;
817;SDS011;391;51.052;6.954;2022-07-09T10:56:20;1.63;;;1.53;;
817;SDS011;391;51.052;6.954;2022-07-09T10:58:24;2.60;;;1.67;;
817;SDS011;391;51.052;6.954;2022-07-09T11:00:32;2.10;;;1.80;;
817;SDS011;391;51.052;6.954;2022-07-09T11:02:38;2.10;;;1.90;;
817;SDS011;391;51.052;6.954;2022-07-09T11:04:41;2.33;;;1.43;;
817;SDS011;391;51.052;6.954;2022-07-09T11:06:44;1.63;;;1.53;;
817;SDS011;391;51.052;6.954;2022-07-09T11:08:48;1.90;;;1.43;;
817;SDS011;391;51.052;6.954;2022-07-09T11:10:52;1.80;;;1.50;;
817;SDS011;391;51.052;6.954;2022-07-09T11:12:56;1.60;;;1.27;;
817;SDS011;391;51.052;6.954;2022-07-09T11:15:01;1.43;;;1.20;;
817;SDS011;391;51.052;6.954;2022-07-09T11:17:05;2.63;;;1.90;;
817;SDS011;391;51.052;6.954;2022-07-09T11:19:13;1.10;;;1.00;;
817;SDS011;391;51.052;6.954;2022-07-09T11:21:21;2.77;;;2.00;;
817;SDS011;391;51.052;6.954;2022-07-09T11:23:24;1.37;;;1.27;;
817;SDS011;391;51.052;6.954;2022-07-09T11:25:28;1.93;;;1.20;;
817;SDS011;391;51.052;6.954;2022-07-09T11:27:32;1.50;;;1.40;;
817;SDS011;391;51.052;6.954;2022-07-09T11:29:36;1.87;;;1.77;;
817;SDS011;391;51.052;6.954;2022-07-09T11:31:45;4.40;;;1.90;;
817;SDS011;391;51.052;6.954;2022-07-09T11:33:50;1.50;;;1.30;;
817;SDS011;391;51.052;6.954;2022-07-09T11:36:12;1.60;;;1.50;;
817;SDS011;391;51.052;6.954;2022-07-09T11:38:16;1.70;;;1.60;;
817;SDS011;391;51.052;6.954;2022-07-09T11:40:19;2.53;;;2.33;;
817;SDS011;391;51.052;6.954;2022-07-09T11:42:23;2.30;;;2.00;;
817;SDS011;391;51.052;6.954;2022-07-09T11:44:27;1.53;;;1.43;;
817;SDS011;391;51.052;6.954;2022-07-09T11:46:31;2.97;;;2.33;;
817;SDS011;391;51.052;6.954;2022-07-09T11:48:35;4.00;;;2.23;;
817;SDS011;391;51.052;6.954;2022-07-09T11:50:41;1.93;;;1.43;;
817;SDS011;391;51.052;6.954;2022-07-09T11:52:49;2.83;;;1.50;;
817;SDS011;391;51.052;6.954;2022-07-09T11:54:57;3.43;;;3.03;;
817;SDS011;391;51.052;6.954;2022-07-09T11:57:01;1.97;;;1.87;;
817;SDS011;391;51.052;6.954;2022-07-09T11:59:05;3.90;;;1.90;;
817;SDS011;391;51.052;6.954;2022-07-09T12:01:10;9.03;;;8.10;;
817;SDS011;391;51.052;6.954;2022-07-09T12:03:22;4.03;;;2.50;;
817;SDS011;391;51.052;6.954;2022-07-09T12:05:27;4.20;;;2.17;;
817;SDS011;391;51.052;6.954;2022-07-09T12:07:33;2.07;;;1.90;;
817;SDS011;391;51.052;6.954;2022-07-09T12:09:38;2.50;;;2.10;;
817;SDS011;391;51.052;6.954;2022-07-09T12:11:43;3.97;;;2.20;;
817;SDS011;391;51.052;6.954;2022-07-09T12:13:46;2.10;;;1.90;;
817;SDS011;391;51.052;6.954;2022-07-09T12:15:50;2.30;;;2.10;;
817;SDS011;391;51.052;6.954;2022-07-09T12:17:53;1.93;;;1.80;;
817;SDS011;391;51.052;6.954;2022-07-09T12:19:58;2.30;;;2.10;;
817;SDS011;391;51.052;6.954;2022-07-09T12:22:02;2.40;;;2.20;;
817;SDS011;391;51.052;6.954;2022-07-09T12:24:06;2.70;;;2.50;;
817;SDS011;391;51.052;6.954;2022-07-09T12:26:11;3.10;;;2.73;;
817;SDS011;391;51.052;6.954;2022-07-09T12:28:14;3.07;;;2.87;;
817;SDS011;391;51.052;6.954;2022-07-09T12:30:18;3.90;;;2.50;;
817;SDS011;391;51.052;6.954;2022-07-09T12:32:22;3.10;;;2.27;;
817;SDS011;391;51.052;6.954;2022-07-09T12:34:25;4.27;;;4.00;;
817;SDS011;391;51.052;6.954;2022-07-09T12:36:29;3.90;;;3.60;;
817;SDS011;391;51.052;6.954;2022-07-09T12:38:52;3.20;;;3.00;;
817;SDS011;391;51.052;6.954;2022-07-09T12:40:56;2.67;;;2.40;;
817;SDS011;391;51.052;6.954;2022-07-09T12:43:00;3.00;;;2.80;;
817;SDS011;391;51.052;6.954;2022-07-09T12:45:05;2.80;;;2.60;;
817;SDS011;391;51.052;6.954;2022-07-09T12:47:13;3.50;;;3.20;;
817;SDS011;391;51.052;6.954;2022-07-09T12:49:16;3.73;;;3.43;;
817;SDS011;391;51.052;6.954;2022-07-09T12:51:20;3.70;;;2.97;;
817;SDS011;391;51.052;6.954;2022-07-09T12:53:23;2.43;;;2.23;;
817;SDS011;391;51.052;6.954;2022-07-09T12:55:26;4.47;;;3.17;;
817;SDS011;391;51.052;6.954;2022-07-09T12:57:50;2.93;;;2.73;;
817;SDS011;391;51.052;6.954;2022-07-09T12:59:55;3.77;;;3.47;;
817;SDS011;391;51.052;6.954;2022-07-09T13:01:59;3.27;;;3.07;;
817;SDS011;391;51.052;6.954;2022-07-09T13:04:02;4.20;;;3.90;;
817;SDS011;391;51.052;6.954;2022-07-09T13:06:14;3.13;;;2.83;;
817;SDS011;391;51.052;6.954;2022-07-09T13:08:32;3.10;;;2.90;;
817;SDS011;391;51.052;6.954;2022-07-09T13:10:35;3.70;;;3.13;;
817;SDS011;391;51.052;6.954;2022-07-09T13:12:39;3.87;;;3.53;;
817;SDS011;391;51.052;6.954;2022-07-09T13:14:42;3.10;;;2.87;;
817;SDS011;391;51.052;6.954;2022-07-09T13:16:47;3.40;;;3.20;;